sensor_id;sensor_type;location;lat;lon;timestamp;temperature;humidity
39849;DHT22;25518;47.878;15.914;2023-07-20T00:00:23;18.30;99.90
39849;DHT22;25518;47.878;15.914;2023-07-20T00:03:14;18.20;99.90
39849;DHT22;25518;47.878;15.914;2023-07-20T00:06:08;18.10;99.90
39849;DHT22;25518;47.878;15.914;2023-07-20T00:08:57;18.20;99.90
39849;DHT22;25518;47.878;15.914;2023-07-20T00:11:50;18.20;99.90
39849;DHT22;25518;47.878;15.914;2023-07-20T00:14:39;18.20;99.90
39849;DHT22;25518;47.878;15.914;2023-07-20T00:17:29;18.20;99.90
39849;DHT22;25518;47.878;15.914;2023-07-20T00:20:19;18.10;99.90
39849;DHT22;25518;47.878;15.914;2023-07-20T00:23:08;18.10;99.90
39849;DHT22;25518;47.878;15.914;2023-07-20T00:25:58;18.10;99.90
39849;DHT22;25518;47.878;15.914;2023-07-20T00:28:50;18.00;99.90
39849;DHT22;25518;47.878;15.914;2023-07-20T00:31:41;18.00;99.90
39849;DHT22;25518;47.878;15.914;2023-07-20T00:34:31;18.00;99.90
39849;DHT22;25518;47.878;15.914;2023-07-20T00:37:21;18.10;99.90
39849;DHT22;25518;47.878;15.914;2023-07-20T00:40:10;18.10;99.90
39849;DHT22;25518;47.878;15.914;2023-07-20T00:43:00;18.00;99.90
39849;DHT22;25518;47.878;15.914;2023-07-20T00:45:50;16.10;99.90
39849;DHT22;25518;47.878;15.914;2023-07-20T00:48:41;17.90;99.90
39849;DHT22;25518;47.878;15.914;2023-07-20T00:51:31;18.00;99.90
39849;DHT22;25518;47.878;15.914;2023-07-20T00:54:20;18.00;99.90
39849;DHT22;25518;47.878;15.914;2023-07-20T00:57:12;18.10;99.90
39849;DHT22;25518;47.878;15.914;2023-07-20T01:00:03;18.10;99.90
39849;DHT22;25518;47.878;15.914;2023-07-20T01:02:53;18.20;99.90
39849;DHT22;25518;47.878;15.914;2023-07-20T01:05:54;18.20;99.90
39849;DHT22;25518;47.878;15.914;2023-07-20T01:14:44;18.60;99.90
39849;DHT22;25518;47.878;15.914;2023-07-20T01:17:35;18.40;99.90
39849;DHT22;25518;47.878;15.914;2023-07-20T01:20:26;17.80;99.90
39849;DHT22;25518;47.878;15.914;2023-07-20T01:23:39;17.40;99.90
39849;DHT22;25518;47.878;15.914;2023-07-20T01:32:43;18.50;99.90
39849;DHT22;25518;47.878;15.914;2023-07-20T01:35:34;18.60;99.90
39849;DHT22;25518;47.878;15.914;2023-07-20T01:38:26;18.80;99.90
39849;DHT22;25518;47.878;15.914;2023-07-20T01:41:16;18.80;99.90
39849;DHT22;25518;47.878;15.914;2023-07-20T01:44:07;18.80;99.90
39849;DHT22;25518;47.878;15.914;2023-07-20T01:46:57;18.80;99.90
39849;DHT22;25518;47.878;15.914;2023-07-20T01:49:47;18.70;99.90
39849;DHT22;25518;47.878;15.914;2023-07-20T01:52:37;18.70;99.90
39849;DHT22;25518;47.878;15.914;2023-07-20T01:55:27;18.70;99.90
39849;DHT22;25518;47.878;15.914;2023-07-20T01:58:16;18.60;99.90
39849;DHT22;25518;47.878;15.914;2023-07-20T02:01:06;18.60;99.90
39849;DHT22;25518;47.878;15.914;2023-07-20T02:03:56;17.80;99.90
39849;DHT22;25518;47.878;15.914;2023-07-20T02:06:45;18.60;99.90
39849;DHT22;25518;47.878;15.914;2023-07-20T02:09:35;18.80;99.90
39849;DHT22;25518;47.878;15.914;2023-07-20T02:12:24;18.80;99.90
39849;DHT22;25518;47.878;15.914;2023-07-20T02:15:14;18.80;99.90
39849;DHT22;25518;47.878;15.914;2023-07-20T02:18:05;18.60;99.90
39849;DHT22;25518;47.878;15.914;2023-07-20T02:20:55;18.50;99.90
39849;DHT22;25518;47.878;15.914;2023-07-20T02:23:45;18.40;99.90
39849;DHT22;25518;47.878;15.914;2023-07-20T02:26:35;18.40;99.90
39849;DHT22;25518;47.878;15.914;2023-07-20T02:29:25;18.40;99.90
39849;DHT22;25518;47.878;15.914;2023-07-20T02:32:14;18.40;99.90
39849;DHT22;25518;47.878;15.914;2023-07-20T02:35:04;18.30;99.90
39849;DHT22;25518;47.878;15.914;2023-07-20T02:37:53;18.30;99.90
39849;DHT22;25518;47.878;15.914;2023-07-20T02:40:44;18.30;99.90
39849;DHT22;25518;47.878;15.914;2023-07-20T02:43:33;18.20;99.90
39849;DHT22;25518;47.878;15.914;2023-07-20T02:46:23;18.30;99.90
39849;DHT22;25518;47.878;15.914;2023-07-20T02:49:12;18.30;99.90
39849;DHT22;25518;47.878;15.914;2023-07-20T02:52:02;18.30;99.90
39849;DHT22;25518;47.878;15.914;2023-07-20T02:54:51;18.40;99.90
39849;DHT22;25518;47.878;15.914;2023-07-20T02:57:41;18.20;99.90
39849;DHT22;25518;47.878;15.914;2023-07-20T03:00:31;18.10;99.90
39849;DHT22;25518;47.878;15.914;2023-07-20T03:20:16;18.10;99.90
39849;DHT22;25518;47.878;15.914;2023-07-20T03:23:05;17.20;99.90
39849;DHT22;25518;47.878;15.914;2023-07-20T03:25:55;18.00;99.90
39849;DHT22;25518;47.878;15.914;2023-07-20T03:28:44;17.90;99.90
39849;DHT22;25518;47.878;15.914;2023-07-20T03:31:34;17.60;99.90
39849;DHT22;25518;47.878;15.914;2023-07-20T03:34:24;18.00;99.90
39849;DHT22;25518;47.878;15.914;2023-07-20T03:37:13;18.00;99.90
39849;DHT22;25518;47.878;15.914;2023-07-20T03:40:03;18.10;99.90
39849;DHT22;25518;47.878;15.914;2023-07-20T03:42:54;18.10;99.90
39849;DHT22;25518;47.878;15.914;2023-07-20T03:45:44;18.10;99.90
39849;DHT22;25518;47.878;15.914;2023-07-20T03:48:35;18.00;99.90
39849;DHT22;25518;47.878;15.914;2023-07-20T03:51:25;17.90;99.90
39849;DHT22;25518;47.878;15.914;2023-07-20T03:54:15;15.60;99.90
39849;DHT22;25518;47.878;15.914;2023-07-20T03:57:04;17.90;99.90
39849;DHT22;25518;47.878;15.914;2023-07-20T03:59:54;17.90;99.90
39849;DHT22;25518;47.878;15.914;2023-07-20T04:02:45;18.00;99.90
39849;DHT22;25518;47.878;15.914;2023-07-20T04:05:35;18.00;99.90
39849;DHT22;25518;47.878;15.914;2023-07-20T04:08:24;18.00;99.90
39849;DHT22;25518;47.878;15.914;2023-07-20T04:11:14;18.10;99.90
39849;DHT22;25518;47.878;15.914;2023-07-20T04:14:05;18.00;99.90
39849;DHT22;25518;47.878;15.914;2023-07-20T04:16:54;18.10;99.90
39849;DHT22;25518;47.878;15.914;2023-07-20T04:19:44;18.00;99.90
39849;DHT22;25518;47.878;15.914;2023-07-20T04:22:34;17.90;99.90
39849;DHT22;25518;47.878;15.914;2023-07-20T04:25:23;17.60;99.90
39849;DHT22;25518;47.878;15.914;2023-07-20T04:28:13;17.60;99.90
39849;DHT22;25518;47.878;15.914;2023-07-20T04:31:12;17.60;99.90
39849;DHT22;25518;47.878;15.914;2023-07-20T04:34:02;17.60;99.90
39849;DHT22;25518;47.878;15.914;2023-07-20T04:36:51;17.80;99.90
39849;DHT22;25518;47.878;15.914;2023-07-20T04:39:41;17.70;99.90
39849;DHT22;25518;47.878;15.914;2023-07-20T04:42:31;17.80;99.90
39849;DHT22;25518;47.878;15.914;2023-07-20T04:45:20;18.00;99.90
39849;DHT22;25518;47.878;15.914;2023-07-20T04:48:14;18.20;99.90
39849;DHT22;25518;47.878;15.914;2023-07-20T04:51:05;18.20;99.90
39849;DHT22;25518;47.878;15.914;2023-07-20T04:53:54;18.20;99.90
39849;DHT22;25518;47.878;15.914;2023-07-20T04:56:44;18.00;99.90
39849;DHT22;25518;47.878;15.914;2023-07-20T04:59:34;18.00;99.90
39849;DHT22;25518;47.878;15.914;2023-07-20T05:02:24;18.00;99.90
39849;DHT22;25518;47.878;15.914;2023-07-20T05:05:14;18.00;99.90
39849;DHT22;25518;47.878;15.914;2023-07-20T05:08:04;18.10;99.90
39849;DHT22;25518;47.878;15.914;2023-07-20T05:10:53;18.20;99.90
39849;DHT22;25518;47.878;15.914;2023-07-20T05:13:43;18.20;99.90
39849;DHT22;25518;47.878;15.914;2023-07-20T05:16:33;18.30;99.90
39849;DHT22;25518;47.878;15.914;2023-07-20T05:19:25;18.10;99.90
39849;DHT22;25518;47.878;15.914;2023-07-20T05:22:15;18.10;99.90
39849;DHT22;25518;47.878;15.914;2023-07-20T05:25:07;18.20;99.90
39849;DHT22;25518;47.878;15.914;2023-07-20T05:27:57;18.30;99.90
39849;DHT22;25518;47.878;15.914;2023-07-20T05:30:47;17.60;99.90
39849;DHT22;25518;47.878;15.914;2023-07-20T05:33:37;18.70;99.90
39849;DHT22;25518;47.878;15.914;2023-07-20T05:36:26;18.60;99.90
39849;DHT22;25518;47.878;15.914;2023-07-20T05:39:17;18.60;99.90
39849;DHT22;25518;47.878;15.914;2023-07-20T05:42:07;18.80;99.90
39849;DHT22;25518;47.878;15.914;2023-07-20T05:44:57;18.80;99.90
39849;DHT22;25518;47.878;15.914;2023-07-20T05:47:46;18.70;99.90
39849;DHT22;25518;47.878;15.914;2023-07-20T05:50:36;19.10;99.90
39849;DHT22;25518;47.878;15.914;2023-07-20T05:53:26;19.10;99.90
39849;DHT22;25518;47.878;15.914;2023-07-20T05:56:16;19.20;99.90
39849;DHT22;25518;47.878;15.914;2023-07-20T05:59:06;19.30;99.90
39849;DHT22;25518;47.878;15.914;2023-07-20T06:01:55;19.60;99.90
39849;DHT22;25518;47.878;15.914;2023-07-20T06:04:45;19.80;99.90
39849;DHT22;25518;47.878;15.914;2023-07-20T06:07:36;20.00;99.90
39849;DHT22;25518;47.878;15.914;2023-07-20T06:10:26;20.10;99.90
39849;DHT22;25518;47.878;15.914;2023-07-20T06:13:16;20.10;99.90
39849;DHT22;25518;47.878;15.914;2023-07-20T06:16:05;20.10;99.90
39849;DHT22;25518;47.878;15.914;2023-07-20T06:18:55;20.20;99.90
39849;DHT22;25518;47.878;15.914;2023-07-20T06:21:44;20.20;99.90
39849;DHT22;25518;47.878;15.914;2023-07-20T06:24:34;20.30;99.90
39849;DHT22;25518;47.878;15.914;2023-07-20T06:27:24;20.40;99.90
39849;DHT22;25518;47.878;15.914;2023-07-20T06:30:13;20.50;99.90
39849;DHT22;25518;47.878;15.914;2023-07-20T06:33:03;20.60;99.90
39849;DHT22;25518;47.878;15.914;2023-07-20T06:35:53;20.60;99.90
39849;DHT22;25518;47.878;15.914;2023-07-20T06:38:42;20.70;99.90
39849;DHT22;25518;47.878;15.914;2023-07-20T06:41:32;20.70;99.90
39849;DHT22;25518;47.878;15.914;2023-07-20T06:44:22;20.80;99.90
39849;DHT22;25518;47.878;15.914;2023-07-20T06:47:12;20.90;99.90
39849;DHT22;25518;47.878;15.914;2023-07-20T06:50:01;21.10;99.90
39849;DHT22;25518;47.878;15.914;2023-07-20T06:52:51;21.20;99.90
39849;DHT22;25518;47.878;15.914;2023-07-20T06:55:42;21.30;99.90
39849;DHT22;25518;47.878;15.914;2023-07-20T06:58:31;21.20;99.90
39849;DHT22;25518;47.878;15.914;2023-07-20T07:01:21;21.20;99.90
39849;DHT22;25518;47.878;15.914;2023-07-20T07:04:11;21.40;99.90
39849;DHT22;25518;47.878;15.914;2023-07-20T07:07:01;21.30;99.90
39849;DHT22;25518;47.878;15.914;2023-07-20T07:09:52;21.30;99.90
39849;DHT22;25518;47.878;15.914;2023-07-20T07:12:41;21.40;99.90
39849;DHT22;25518;47.878;15.914;2023-07-20T07:15:31;21.60;99.90
39849;DHT22;25518;47.878;15.914;2023-07-20T07:18:21;21.50;99.90
39849;DHT22;25518;47.878;15.914;2023-07-20T07:21:10;21.50;99.90
39849;DHT22;25518;47.878;15.914;2023-07-20T07:24:01;21.60;99.90
39849;DHT22;25518;47.878;15.914;2023-07-20T07:26:50;21.50;99.90
39849;DHT22;25518;47.878;15.914;2023-07-20T07:29:40;21.50;99.90
39849;DHT22;25518;47.878;15.914;2023-07-20T07:32:29;21.70;99.90
39849;DHT22;25518;47.878;15.914;2023-07-20T07:35:19;21.30;99.90
39849;DHT22;25518;47.878;15.914;2023-07-20T07:38:08;21.60;99.90
39849;DHT22;25518;47.878;15.914;2023-07-20T07:40:59;21.50;99.90
39849;DHT22;25518;47.878;15.914;2023-07-20T07:43:48;21.50;99.90
39849;DHT22;25518;47.878;15.914;2023-07-20T07:46:38;21.60;99.90
39849;DHT22;25518;47.878;15.914;2023-07-20T07:49:28;21.70;99.90
39849;DHT22;25518;47.878;15.914;2023-07-20T07:52:18;22.10;99.90
39849;DHT22;25518;47.878;15.914;2023-07-20T07:55:07;22.20;99.90
39849;DHT22;25518;47.878;15.914;2023-07-20T07:57:57;22.30;99.90
39849;DHT22;25518;47.878;15.914;2023-07-20T08:00:47;22.30;99.90
39849;DHT22;25518;47.878;15.914;2023-07-20T08:03:37;22.30;99.90
39849;DHT22;25518;47.878;15.914;2023-07-20T08:06:27;22.60;99.90
39849;DHT22;25518;47.878;15.914;2023-07-20T08:09:17;22.80;99.90
39849;DHT22;25518;47.878;15.914;2023-07-20T08:12:07;22.90;99.90
39849;DHT22;25518;47.878;15.914;2023-07-20T08:14:57;23.00;99.90
39849;DHT22;25518;47.878;15.914;2023-07-20T08:17:46;23.00;99.90
39849;DHT22;25518;47.878;15.914;2023-07-20T08:20:37;23.10;99.90
39849;DHT22;25518;47.878;15.914;2023-07-20T08:23:27;22.90;99.90
39849;DHT22;25518;47.878;15.914;2023-07-20T08:26:17;22.90;99.90
39849;DHT22;25518;47.878;15.914;2023-07-20T08:29:06;23.30;99.90
39849;DHT22;25518;47.878;15.914;2023-07-20T08:31:56;23.50;99.90
39849;DHT22;25518;47.878;15.914;2023-07-20T08:34:45;23.30;99.90
39849;DHT22;25518;47.878;15.914;2023-07-20T08:37:35;23.10;99.90
39849;DHT22;25518;47.878;15.914;2023-07-20T08:40:25;23.50;99.90
39849;DHT22;25518;47.878;15.914;2023-07-20T08:43:15;23.70;99.90
39849;DHT22;25518;47.878;15.914;2023-07-20T08:46:05;23.80;99.90
39849;DHT22;25518;47.878;15.914;2023-07-20T08:48:56;22.80;99.90
39849;DHT22;25518;47.878;15.914;2023-07-20T08:51:48;23.30;99.90
39849;DHT22;25518;47.878;15.914;2023-07-20T08:54:38;23.00;99.90
39849;DHT22;25518;47.878;15.914;2023-07-20T08:57:28;22.80;99.90
39849;DHT22;25518;47.878;15.914;2023-07-20T09:00:20;22.70;99.90
39849;DHT22;25518;47.878;15.914;2023-07-20T09:03:11;22.80;99.90
39849;DHT22;25518;47.878;15.914;2023-07-20T09:06:01;22.80;99.90
39849;DHT22;25518;47.878;15.914;2023-07-20T09:08:51;23.10;99.90
39849;DHT22;25518;47.878;15.914;2023-07-20T09:11:40;23.00;99.90
39849;DHT22;25518;47.878;15.914;2023-07-20T09:14:30;22.80;99.90
39849;DHT22;25518;47.878;15.914;2023-07-20T09:17:25;22.60;99.90
39849;DHT22;25518;47.878;15.914;2023-07-20T09:20:17;22.50;99.90
39849;DHT22;25518;47.878;15.914;2023-07-20T09:23:07;22.50;99.90
39849;DHT22;25518;47.878;15.914;2023-07-20T09:25:58;22.40;99.90
39849;DHT22;25518;47.878;15.914;2023-07-20T09:28:50;22.40;99.90
39849;DHT22;25518;47.878;15.914;2023-07-20T09:31:40;22.40;99.90
39849;DHT22;25518;47.878;15.914;2023-07-20T09:34:31;22.50;99.90
39849;DHT22;25518;47.878;15.914;2023-07-20T09:37:22;22.80;99.90
39849;DHT22;25518;47.878;15.914;2023-07-20T09:40:15;22.70;99.90
39849;DHT22;25518;47.878;15.914;2023-07-20T09:43:09;22.70;99.90
39849;DHT22;25518;47.878;15.914;2023-07-20T09:45:59;22.70;99.90
39849;DHT22;25518;47.878;15.914;2023-07-20T09:48:52;21.40;99.90
39849;DHT22;25518;47.878;15.914;2023-07-20T09:51:45;22.40;99.90
39849;DHT22;25518;47.878;15.914;2023-07-20T09:54:38;22.50;99.90
39849;DHT22;25518;47.878;15.914;2023-07-20T09:57:28;22.50;99.90
39849;DHT22;25518;47.878;15.914;2023-07-20T10:00:18;22.80;99.90
39849;DHT22;25518;47.878;15.914;2023-07-20T10:03:09;23.10;99.90
39849;DHT22;25518;47.878;15.914;2023-07-20T10:06:06;23.60;99.90
39849;DHT22;25518;47.878;15.914;2023-07-20T10:09:01;24.20;99.90
39849;DHT22;25518;47.878;15.914;2023-07-20T10:11:53;24.00;99.90
39849;DHT22;25518;47.878;15.914;2023-07-20T10:14:51;23.60;99.90
39849;DHT22;25518;47.878;15.914;2023-07-20T10:18:07;24.20;99.90
39849;DHT22;25518;47.878;15.914;2023-07-20T10:21:00;23.30;99.90
39849;DHT22;25518;47.878;15.914;2023-07-20T10:23:50;23.10;99.90
39849;DHT22;25518;47.878;15.914;2023-07-20T10:26:39;22.80;99.90
39849;DHT22;25518;47.878;15.914;2023-07-20T10:29:30;21.50;99.90
39849;DHT22;25518;47.878;15.914;2023-07-20T10:32:20;22.40;99.90
39849;DHT22;25518;47.878;15.914;2023-07-20T10:35:13;22.50;99.90
39849;DHT22;25518;47.878;15.914;2023-07-20T10:38:04;22.60;99.90
39849;DHT22;25518;47.878;15.914;2023-07-20T10:40:55;22.50;99.90
39849;DHT22;25518;47.878;15.914;2023-07-20T10:43:46;22.80;99.90
39849;DHT22;25518;47.878;15.914;2023-07-20T10:49:29;23.00;99.90
39849;DHT22;25518;47.878;15.914;2023-07-20T10:52:21;22.80;99.90
39849;DHT22;25518;47.878;15.914;2023-07-20T10:55:14;22.80;99.90
39849;DHT22;25518;47.878;15.914;2023-07-20T10:58:08;23.30;99.90
39849;DHT22;25518;47.878;15.914;2023-07-20T11:01:02;24.10;99.90
39849;DHT22;25518;47.878;15.914;2023-07-20T11:03:58;24.50;99.90
39849;DHT22;25518;47.878;15.914;2023-07-20T11:06:55;24.60;99.90
39849;DHT22;25518;47.878;15.914;2023-07-20T11:09:44;24.50;99.90
39849;DHT22;25518;47.878;15.914;2023-07-20T11:12:34;24.40;99.90
39849;DHT22;25518;47.878;15.914;2023-07-20T11:15:24;24.30;98.60
39849;DHT22;25518;47.878;15.914;2023-07-20T11:18:14;24.40;99.10
39849;DHT22;25518;47.878;15.914;2023-07-20T11:21:07;24.80;99.90
39849;DHT22;25518;47.878;15.914;2023-07-20T11:23:58;24.40;98.00
39849;DHT22;25518;47.878;15.914;2023-07-20T11:26:49;23.80;98.80
39849;DHT22;25518;47.878;15.914;2023-07-20T11:29:39;25.00;98.30
39849;DHT22;25518;47.878;15.914;2023-07-20T11:32:29;25.20;98.70
39849;DHT22;25518;47.878;15.914;2023-07-20T11:35:18;23.50;97.30
39849;DHT22;25518;47.878;15.914;2023-07-20T11:38:08;21.90;96.70
39849;DHT22;25518;47.878;15.914;2023-07-20T11:40:58;24.40;96.20
39849;DHT22;25518;47.878;15.914;2023-07-20T11:43:47;24.70;97.20
39849;DHT22;25518;47.878;15.914;2023-07-20T11:46:37;24.40;97.20
39849;DHT22;25518;47.878;15.914;2023-07-20T11:49:27;24.80;97.90
39849;DHT22;25518;47.878;15.914;2023-07-20T11:52:17;25.30;97.10
39849;DHT22;25518;47.878;15.914;2023-07-20T11:55:07;25.40;96.70
39849;DHT22;25518;47.878;15.914;2023-07-20T11:58:02;25.10;95.80
39849;DHT22;25518;47.878;15.914;2023-07-20T12:00:52;25.30;97.40
39849;DHT22;25518;47.878;15.914;2023-07-20T12:03:43;25.50;97.40
39849;DHT22;25518;47.878;15.914;2023-07-20T12:06:33;25.60;96.60
39849;DHT22;25518;47.878;15.914;2023-07-20T12:09:23;25.60;96.10
39849;DHT22;25518;47.878;15.914;2023-07-20T12:12:12;25.60;94.70
39849;DHT22;25518;47.878;15.914;2023-07-20T12:18:11;25.50;94.70
39849;DHT22;25518;47.878;15.914;2023-07-20T12:21:01;25.40;95.50
39849;DHT22;25518;47.878;15.914;2023-07-20T12:23:51;25.70;93.90
39849;DHT22;25518;47.878;15.914;2023-07-20T12:26:41;25.60;94.10
39849;DHT22;25518;47.878;15.914;2023-07-20T12:29:31;25.60;94.20
39849;DHT22;25518;47.878;15.914;2023-07-20T12:32:25;25.90;95.00
39849;DHT22;25518;47.878;15.914;2023-07-20T12:35:14;26.00;93.50
39849;DHT22;25518;47.878;15.914;2023-07-20T12:38:05;25.90;93.20
39849;DHT22;25518;47.878;15.914;2023-07-20T12:40:55;26.20;94.20
39849;DHT22;25518;47.878;15.914;2023-07-20T12:43:45;25.90;93.60
39849;DHT22;25518;47.878;15.914;2023-07-20T12:46:35;25.30;93.60
39849;DHT22;25518;47.878;15.914;2023-07-20T12:49:26;25.00;94.20
39849;DHT22;25518;47.878;15.914;2023-07-20T12:52:16;23.40;94.70
39849;DHT22;25518;47.878;15.914;2023-07-20T12:55:07;24.70;94.40
39849;DHT22;25518;47.878;15.914;2023-07-20T12:57:57;24.70;95.10
39849;DHT22;25518;47.878;15.914;2023-07-20T13:00:47;24.50;95.10
39849;DHT22;25518;47.878;15.914;2023-07-20T13:03:37;24.60;95.60
39849;DHT22;25518;47.878;15.914;2023-07-20T13:06:26;25.10;96.70
39849;DHT22;25518;47.878;15.914;2023-07-20T13:09:16;25.90;94.20
39849;DHT22;25518;47.878;15.914;2023-07-20T13:12:06;25.60;93.40
39849;DHT22;25518;47.878;15.914;2023-07-20T13:14:57;25.20;94.70
39849;DHT22;25518;47.878;15.914;2023-07-20T13:17:49;25.10;94.30
39849;DHT22;25518;47.878;15.914;2023-07-20T13:20:39;25.40;94.50
39849;DHT22;25518;47.878;15.914;2023-07-20T13:23:30;25.30;93.60
39849;DHT22;25518;47.878;15.914;2023-07-20T13:26:19;25.00;94.30
39849;DHT22;25518;47.878;15.914;2023-07-20T13:29:09;25.30;94.30
39849;DHT22;25518;47.878;15.914;2023-07-20T13:31:59;25.10;94.70
39849;DHT22;25518;47.878;15.914;2023-07-20T13:34:48;25.40;94.10
39849;DHT22;25518;47.878;15.914;2023-07-20T13:37:38;25.60;94.30
39849;DHT22;25518;47.878;15.914;2023-07-20T13:40:28;25.80;94.30
39849;DHT22;25518;47.878;15.914;2023-07-20T13:43:18;25.90;93.10
39849;DHT22;25518;47.878;15.914;2023-07-20T13:46:07;26.30;94.80
39849;DHT22;25518;47.878;15.914;2023-07-20T13:48:57;26.10;95.00
39849;DHT22;25518;47.878;15.914;2023-07-20T13:51:46;26.00;92.80
39849;DHT22;25518;47.878;15.914;2023-07-20T13:54:36;25.50;93.30
39849;DHT22;25518;47.878;15.914;2023-07-20T13:57:26;25.20;94.10
39849;DHT22;25518;47.878;15.914;2023-07-20T14:00:16;25.40;93.80
39849;DHT22;25518;47.878;15.914;2023-07-20T14:03:06;25.40;93.80
39849;DHT22;25518;47.878;15.914;2023-07-20T14:05:55;25.30;94.30
39849;DHT22;25518;47.878;15.914;2023-07-20T14:08:45;25.30;93.80
39849;DHT22;25518;47.878;15.914;2023-07-20T14:11:38;25.30;94.40
39849;DHT22;25518;47.878;15.914;2023-07-20T14:14:28;25.40;93.80
39849;DHT22;25518;47.878;15.914;2023-07-20T14:17:17;25.20;93.50
39849;DHT22;25518;47.878;15.914;2023-07-20T14:20:07;25.10;95.10
39849;DHT22;25518;47.878;15.914;2023-07-20T14:22:57;24.10;94.40
39849;DHT22;25518;47.878;15.914;2023-07-20T14:25:48;25.70;94.70
39849;DHT22;25518;47.878;15.914;2023-07-20T14:28:37;25.80;94.30
39849;DHT22;25518;47.878;15.914;2023-07-20T14:31:27;26.00;93.50
39849;DHT22;25518;47.878;15.914;2023-07-20T14:34:17;23.60;93.30
39849;DHT22;25518;47.878;15.914;2023-07-20T14:37:09;26.00;93.60
39849;DHT22;25518;47.878;15.914;2023-07-20T14:39:58;26.10;94.00
39849;DHT22;25518;47.878;15.914;2023-07-20T14:42:48;25.90;93.50
39849;DHT22;25518;47.878;15.914;2023-07-20T14:45:38;25.60;93.50
39849;DHT22;25518;47.878;15.914;2023-07-20T14:48:27;25.70;94.90
39849;DHT22;25518;47.878;15.914;2023-07-20T14:51:17;25.50;93.80
39849;DHT22;25518;47.878;15.914;2023-07-20T14:54:06;25.50;94.80
39849;DHT22;25518;47.878;15.914;2023-07-20T14:56:56;25.50;94.00
39849;DHT22;25518;47.878;15.914;2023-07-20T14:59:46;25.50;94.00
39849;DHT22;25518;47.878;15.914;2023-07-20T15:02:36;25.20;94.50
39849;DHT22;25518;47.878;15.914;2023-07-20T15:05:26;25.10;94.00
39849;DHT22;25518;47.878;15.914;2023-07-20T15:08:16;25.10;94.20
39849;DHT22;25518;47.878;15.914;2023-07-20T15:11:06;25.50;95.00
39849;DHT22;25518;47.878;15.914;2023-07-20T15:13:56;25.40;93.40
39849;DHT22;25518;47.878;15.914;2023-07-20T15:16:46;25.30;94.40
39849;DHT22;25518;47.878;15.914;2023-07-20T15:19:35;25.60;94.40
39849;DHT22;25518;47.878;15.914;2023-07-20T15:22:25;25.60;94.90
39849;DHT22;25518;47.878;15.914;2023-07-20T15:25:14;25.40;94.00
39849;DHT22;25518;47.878;15.914;2023-07-20T15:28:04;25.50;93.90
39849;DHT22;25518;47.878;15.914;2023-07-20T15:31:02;25.60;94.10
39849;DHT22;25518;47.878;15.914;2023-07-20T15:33:52;25.80;94.00
39849;DHT22;25518;47.878;15.914;2023-07-20T15:36:42;25.40;93.90
39849;DHT22;25518;47.878;15.914;2023-07-20T15:39:31;25.00;94.10
39849;DHT22;25518;47.878;15.914;2023-07-20T15:42:21;25.10;95.80
39849;DHT22;25518;47.878;15.914;2023-07-20T15:45:11;25.20;94.60
39849;DHT22;25518;47.878;15.914;2023-07-20T15:48:00;24.90;93.90
39849;DHT22;25518;47.878;15.914;2023-07-20T15:50:50;24.70;93.70
39849;DHT22;25518;47.878;15.914;2023-07-20T15:53:40;24.50;93.90
39849;DHT22;25518;47.878;15.914;2023-07-20T15:56:30;24.40;94.20
39849;DHT22;25518;47.878;15.914;2023-07-20T15:59:20;24.90;94.00
39849;DHT22;25518;47.878;15.914;2023-07-20T16:02:10;25.00;94.10
39849;DHT22;25518;47.878;15.914;2023-07-20T16:05:00;25.00;94.80
39849;DHT22;25518;47.878;15.914;2023-07-20T16:07:49;25.20;94.60
39849;DHT22;25518;47.878;15.914;2023-07-20T16:10:39;25.20;94.20
39849;DHT22;25518;47.878;15.914;2023-07-20T16:13:29;25.20;93.40
39849;DHT22;25518;47.878;15.914;2023-07-20T16:16:18;25.00;94.00
39849;DHT22;25518;47.878;15.914;2023-07-20T16:19:08;25.00;94.90
39849;DHT22;25518;47.878;15.914;2023-07-20T16:21:58;24.90;94.80
39849;DHT22;25518;47.878;15.914;2023-07-20T16:24:47;24.70;94.30
39849;DHT22;25518;47.878;15.914;2023-07-20T16:27:37;24.80;94.20
39849;DHT22;25518;47.878;15.914;2023-07-20T16:30:28;24.90;94.60
39849;DHT22;25518;47.878;15.914;2023-07-20T16:33:18;24.90;94.80
39849;DHT22;25518;47.878;15.914;2023-07-20T16:36:10;25.00;94.10
39849;DHT22;25518;47.878;15.914;2023-07-20T16:39:00;25.10;93.50
39849;DHT22;25518;47.878;15.914;2023-07-20T16:41:49;25.20;94.50
39849;DHT22;25518;47.878;15.914;2023-07-20T16:44:39;25.20;94.50
39849;DHT22;25518;47.878;15.914;2023-07-20T16:47:29;25.30;93.40
39849;DHT22;25518;47.878;15.914;2023-07-20T16:50:19;25.10;93.40
39849;DHT22;25518;47.878;15.914;2023-07-20T16:53:08;24.90;94.00
39849;DHT22;25518;47.878;15.914;2023-07-20T16:55:59;24.70;93.90
39849;DHT22;25518;47.878;15.914;2023-07-20T16:58:48;24.70;93.70
39849;DHT22;25518;47.878;15.914;2023-07-20T17:01:38;24.90;94.60
39849;DHT22;25518;47.878;15.914;2023-07-20T17:04:27;24.80;94.10
39849;DHT22;25518;47.878;15.914;2023-07-20T17:07:17;24.20;93.80
39849;DHT22;25518;47.878;15.914;2023-07-20T17:10:07;25.10;94.00
39849;DHT22;25518;47.878;15.914;2023-07-20T17:12:58;25.30;93.90
39849;DHT22;25518;47.878;15.914;2023-07-20T17:15:48;25.10;93.50
39849;DHT22;25518;47.878;15.914;2023-07-20T17:18:38;25.40;93.30
39849;DHT22;25518;47.878;15.914;2023-07-20T17:21:29;25.60;93.60
39849;DHT22;25518;47.878;15.914;2023-07-20T17:24:20;26.10;93.60
39849;DHT22;25518;47.878;15.914;2023-07-20T17:27:10;26.40;92.10
39849;DHT22;25518;47.878;15.914;2023-07-20T17:30:00;26.50;92.10
39849;DHT22;25518;47.878;15.914;2023-07-20T17:32:50;26.10;92.80
39849;DHT22;25518;47.878;15.914;2023-07-20T17:35:41;25.60;93.20
39849;DHT22;25518;47.878;15.914;2023-07-20T17:38:30;25.00;93.90
39849;DHT22;25518;47.878;15.914;2023-07-20T17:41:20;24.40;94.20
39849;DHT22;25518;47.878;15.914;2023-07-20T17:44:11;23.40;95.20
39849;DHT22;25518;47.878;15.914;2023-07-20T17:47:00;23.90;95.70
39849;DHT22;25518;47.878;15.914;2023-07-20T17:49:50;23.00;94.30
39849;DHT22;25518;47.878;15.914;2023-07-20T17:52:41;23.40;94.80
39849;DHT22;25518;47.878;15.914;2023-07-20T17:55:30;23.40;94.70
39849;DHT22;25518;47.878;15.914;2023-07-20T17:58:20;23.40;94.80
39849;DHT22;25518;47.878;15.914;2023-07-20T18:01:09;23.30;95.00
39849;DHT22;25518;47.878;15.914;2023-07-20T18:03:59;23.30;97.80
39849;DHT22;25518;47.878;15.914;2023-07-20T18:06:49;23.20;96.50
39849;DHT22;25518;47.878;15.914;2023-07-20T18:09:38;23.20;98.30
39849;DHT22;25518;47.878;15.914;2023-07-20T18:12:29;23.00;96.60